createdAt,value
2022-11-02T00:01:45.129Z,100621.91
2022-11-02T00:06:46.528Z,100619.22
2022-11-02T00:11:47.786Z,100615.19
2022-11-02T00:16:49.567Z,100611.78
2022-11-02T00:21:51.033Z,100611.31
2022-11-02T00:26:53.714Z,100615.56
2022-11-02T00:31:55.047Z,100620.44
2022-11-02T00:36:56.357Z,100605.81
2022-11-02T00:41:57.631Z,100608.34
2022-11-02T00:46:58.981Z,100609.84
2022-11-02T00:52:00.300Z,100603.34
2022-11-02T01:02:08.121Z,100607.97
2022-11-02T01:07:09.551Z,100602.91
2022-11-02T01:12:11.087Z,100606.78
2022-11-02T01:17:12.459Z,100609.19
2022-11-02T01:22:13.759Z,100601.19
2022-11-02T01:27:15.224Z,100602.28
2022-11-02T01:32:16.527Z,100590.28
2022-11-02T01:37:17.865Z,100587.63
2022-11-02T01:42:25.881Z,100597.81
2022-11-02T01:47:32.701Z,100577.91
2022-11-02T01:52:39.172Z,100579.59
2022-11-02T01:57:43.395Z,100578.06
2022-11-02T02:02:51.400Z,100572.47
2022-11-02T02:07:54.643Z,100579.00
2022-11-02T02:12:56.000Z,100575.25
2022-11-02T02:18:12.161Z,100576.47
2022-11-02T02:23:36.958Z,100567.50
2022-11-02T02:28:41.204Z,100560.31
2022-11-02T02:33:55.172Z,100555.41
2022-11-02T02:39:12.111Z,100544.00
2022-11-02T02:44:20.422Z,100532.97
2022-11-02T02:49:27.331Z,100544.84
2022-11-02T02:54:37.035Z,100549.31
2022-11-02T02:59:43.913Z,100547.28
2022-11-02T03:04:45.303Z,100535.00
2022-11-02T03:09:51.756Z,100547.25
2022-11-02T03:15:11.175Z,100544.47
2022-11-02T03:20:37.318Z,100545.53
2022-11-02T03:26:00.250Z,100550.47
2022-11-02T03:31:28.245Z,100549.53
2022-11-02T03:36:37.691Z,100554.72
2022-11-02T03:41:43.772Z,100554.03
2022-11-02T03:46:46.535Z,100561.69
2022-11-02T03:51:49.986Z,100569.81
2022-11-02T03:56:56.574Z,100572.56
2022-11-02T04:01:59.804Z,100577.19
2022-11-02T04:07:01.282Z,100584.94
2022-11-02T04:12:21.283Z,100578.91
2022-11-02T04:17:41.095Z,100595.88
2022-11-02T04:23:00.849Z,100603.88
2022-11-02T04:28:08.514Z,100605.56
2022-11-02T04:33:28.584Z,100610.88
2022-11-02T04:38:43.021Z,100597.19
2022-11-02T04:43:44.426Z,100598.91
2022-11-02T04:48:46.281Z,100606.78
2022-11-02T04:53:48.782Z,100612.22
2022-11-02T04:58:52.163Z,100611.13
2022-11-02T05:03:55.990Z,100627.88
2022-11-02T05:08:57.265Z,100624.97
2022-11-02T05:13:58.563Z,100629.81
2022-11-02T05:18:59.859Z,100629.19
2022-11-02T05:24:01.237Z,100639.28
2022-11-02T05:29:02.546Z,100634.41
2022-11-02T05:34:03.840Z,100640.97
2022-11-02T05:39:05.157Z,100648.47
2022-11-02T05:44:06.554Z,100651.16
2022-11-02T05:49:07.896Z,100653.94
2022-11-02T05:54:09.168Z,100655.13
2022-11-02T05:59:10.502Z,100653.19
2022-11-02T06:04:11.835Z,100666.72
2022-11-02T06:09:13.272Z,100679.94
2022-11-02T06:14:14.557Z,100689.16
2022-11-02T06:19:15.883Z,100686.84
2022-11-02T06:24:17.198Z,100695.44
2022-11-02T06:29:18.474Z,100696.06
2022-11-02T06:34:19.826Z,100709.28
2022-11-02T06:39:21.475Z,100711.97
2022-11-02T06:44:23.847Z,100710.47
2022-11-02T06:49:25.179Z,100726.00
2022-11-02T06:54:26.534Z,100720.19
2022-11-02T06:59:27.844Z,100726.41
2022-11-02T07:04:29.171Z,100746.53
2022-11-02T07:09:30.525Z,100756.84
2022-11-02T07:14:31.918Z,100767.94
2022-11-02T07:19:33.479Z,100773.91
2022-11-02T07:24:34.883Z,100778.66
2022-11-02T07:29:36.152Z,100793.69
2022-11-02T07:34:37.533Z,100788.28
2022-11-02T07:39:38.850Z,100797.16
2022-11-02T07:44:40.188Z,100796.72
2022-11-02T07:49:41.568Z,100789.53
2022-11-02T07:54:44.735Z,100799.75
2022-11-02T07:59:46.284Z,100801.91
2022-11-02T08:04:47.563Z,100799.38
2022-11-02T08:09:48.900Z,100814.91
2022-11-02T08:14:50.339Z,100813.22
2022-11-02T08:19:51.656Z,100817.34
2022-11-02T08:24:52.975Z,100822.19
2022-11-02T08:29:54.324Z,100818.28
2022-11-02T08:34:55.746Z,100830.41
2022-11-02T08:39:57.105Z,100832.97
2022-11-02T08:44:58.681Z,100810.09
2022-11-02T08:50:00.046Z,100824.97
2022-11-02T08:55:01.547Z,100817.78
2022-11-02T09:00:03.387Z,100819.22
2022-11-02T09:05:05.128Z,100817.50
2022-11-02T09:10:07.646Z,100814.78
2022-11-02T09:15:09.335Z,100824.25
2022-11-02T09:20:10.638Z,100839.94
2022-11-02T09:25:13.319Z,100835.09
2022-11-02T09:30:14.704Z,100833.31
2022-11-02T09:35:16.051Z,100844.88
2022-11-02T09:40:21.530Z,100846.16
2022-11-02T09:45:23.403Z,100849.31
2022-11-02T09:50:33.932Z,100846.09
2022-11-02T09:55:37.601Z,100840.75
2022-11-02T10:00:41.951Z,100844.50
2022-11-02T10:05:53.004Z,100856.16
2022-11-02T10:11:18.709Z,100859.66
2022-11-02T10:16:25.011Z,100868.81
2022-11-02T10:21:32.455Z,100869.88
2022-11-02T10:26:37.307Z,100875.25
2022-11-02T10:31:38.630Z,100882.53
2022-11-02T10:37:07.603Z,100872.69
2022-11-02T10:42:40.128Z,100866.78
2022-11-02T10:48:07.802Z,100868.91
2022-11-02T10:53:39.335Z,100855.78
2022-11-02T10:58:40.713Z,100862.22
2022-11-02T11:03:56.583Z,100853.53
2022-11-02T11:09:20.138Z,100847.78
2022-11-02T11:19:52.974Z,100842.66
2022-11-02T11:25:27.561Z,100840.59
2022-11-02T11:35:57.783Z,100839.00
2022-11-02T11:41:00.006Z,100837.03
2022-11-02T11:46:06.594Z,100828.81
2022-11-02T11:51:36.892Z,100840.88
2022-11-02T11:56:38.265Z,100839.72
2022-11-02T12:01:40.284Z,100823.59
2022-11-02T12:06:55.396Z,100815.84
2022-11-02T12:12:24.528Z,100811.72
2022-11-02T12:17:46.766Z,100797.19
2022-11-02T12:23:18.970Z,100800.41
2022-11-02T12:28:29.989Z,100790.28
2022-11-02T12:34:05.343Z,100796.47
2022-11-02T12:39:45.786Z,100796.22
2022-11-02T12:45:26.456Z,100803.66
2022-11-02T12:50:52.300Z,100808.91
2022-11-02T12:55:57.765Z,100824.34
2022-11-02T13:01:13.325Z,100805.09
2022-11-02T13:06:19.550Z,100785.59
2022-11-02T13:11:31.727Z,100773.81
2022-11-02T13:16:54.619Z,100777.38
2022-11-02T13:21:58.147Z,100786.50
2022-11-02T13:27:21.687Z,100787.59
2022-11-02T13:32:46.857Z,100782.31
2022-11-02T13:37:55.279Z,100771.78
2022-11-02T13:43:07.201Z,100770.13
2022-11-02T13:48:27.150Z,100767.81
2022-11-02T13:53:37.287Z,100759.28
2022-11-02T13:58:46.701Z,100752.88
2022-11-02T14:04:00.476Z,100750.06
2022-11-02T14:09:07.559Z,100768.69
2022-11-02T14:14:11.900Z,100764.31
2022-11-02T14:19:21.999Z,100759.63
2022-11-02T14:24:32.360Z,100775.81
2022-11-02T14:29:44.684Z,100774.56
2022-11-02T14:35:23.887Z,100783.38
2022-11-02T14:40:36.120Z,100776.06
2022-11-02T14:45:50.295Z,100777.69
2022-11-02T14:51:16.160Z,100766.59
2022-11-02T14:56:17.551Z,100767.09
2022-11-02T15:01:19.644Z,100782.06
2022-11-02T15:06:26.856Z,100774.03
2022-11-02T15:11:49.521Z,100769.19
2022-11-02T15:16:50.901Z,100782.25
2022-11-02T15:21:53.171Z,100773.97
2022-11-02T15:27:00.256Z,100765.13
2022-11-02T15:32:03.592Z,100759.28
2022-11-02T15:37:05.715Z,100760.13
2022-11-02T15:42:36.023Z,100777.66
2022-11-02T15:47:56.059Z,100775.75
2022-11-02T15:53:22.247Z,100767.59
2022-11-02T15:58:31.613Z,100757.44
2022-11-02T16:03:33.687Z,100758.94
2022-11-02T16:08:37.839Z,100758.13
2022-11-02T16:13:55.694Z,100759.03
2022-11-02T16:19:01.110Z,100756.28
2022-11-02T16:24:02.453Z,100751.16
2022-11-02T16:29:08.450Z,100738.78
2022-11-02T16:34:21.965Z,100744.47
2022-11-02T16:39:39.459Z,100736.84
2022-11-02T16:44:43.054Z,100750.97
2022-11-02T16:49:57.628Z,100750.97
2022-11-02T16:54:59.198Z,100741.66
2022-11-02T17:00:04.973Z,100745.34
2022-11-02T17:05:18.077Z,100744.22
2022-11-02T17:10:23.841Z,100736.75
2022-11-02T17:15:27.164Z,100731.25
2022-11-02T17:20:29.084Z,100741.97
2022-11-02T17:25:48.465Z,100734.34
2022-11-02T17:30:51.562Z,100733.22
2022-11-02T17:35:56.463Z,100742.50
2022-11-02T17:40:59.605Z,100738.84
2022-11-02T17:46:01.107Z,100745.63
2022-11-02T17:51:02.468Z,100744.94
2022-11-02T17:56:04.187Z,100742.38
2022-11-02T18:01:05.891Z,100742.78
2022-11-02T18:06:07.545Z,100734.91
2022-11-02T18:11:09.056Z,100730.66
2022-11-02T18:16:10.536Z,100732.56
2022-11-02T18:21:12.088Z,100734.94
2022-11-02T18:26:13.879Z,100720.13
2022-11-02T18:31:15.249Z,100726.94
2022-11-02T18:36:16.593Z,100728.03
2022-11-02T18:41:30.804Z,100726.00
2022-11-02T18:46:32.550Z,100717.41
2022-11-02T18:51:33.968Z,100719.47
2022-11-02T18:56:35.374Z,100726.50
2022-11-02T19:01:36.918Z,100723.13
2022-11-02T19:06:57.130Z,100712.69
2022-11-02T19:12:05.253Z,100707.25
2022-11-02T19:17:08.283Z,100706.75
2022-11-02T19:22:13.036Z,100710.84
2022-11-02T19:27:16.849Z,100692.41
2022-11-02T19:32:18.866Z,100700.34
2022-11-02T19:37:20.241Z,100691.03
2022-11-02T19:42:21.544Z,100693.53
2022-11-02T19:47:22.896Z,100686.56
2022-11-02T19:52:24.504Z,100676.66
2022-11-02T19:57:29.377Z,100688.41
2022-11-02T20:02:34.449Z,100673.97
2022-11-02T20:07:35.814Z,100689.31
2022-11-02T20:12:37.097Z,100685.38
2022-11-02T20:17:52.376Z,100677.22
2022-11-02T20:22:59.870Z,100679.84
2022-11-02T20:28:01.195Z,100686.94
2022-11-02T20:33:02.512Z,100674.13
2022-11-02T20:38:04.309Z,100684.13
2022-11-02T20:43:06.944Z,100683.66
2022-11-02T20:48:08.586Z,100672.97
2022-11-02T20:53:10.125Z,100663.31
2022-11-02T20:58:11.547Z,100678.09
2022-11-02T21:03:13.726Z,100686.53
2022-11-02T21:08:15.551Z,100675.88
2022-11-02T21:13:35.402Z,100670.78
2022-11-02T21:18:37.055Z,100677.09
2022-11-02T21:23:38.418Z,100668.34
2022-11-02T21:28:42.121Z,100657.91
2022-11-02T21:33:44.610Z,100656.47
2022-11-02T21:38:46.902Z,100646.28
2022-11-02T21:43:51.771Z,100648.81
2022-11-02T21:48:55.124Z,100633.94
2022-11-02T21:53:56.759Z,100641.47
2022-11-02T21:58:58.287Z,100624.47
2022-11-02T22:04:00.112Z,100633.19
2022-11-02T22:09:01.893Z,100629.56
2022-11-02T22:14:03.698Z,100613.41
2022-11-02T22:19:10.403Z,100616.81
2022-11-02T22:24:12.393Z,100626.97
2022-11-02T22:29:13.689Z,100616.94
2022-11-02T22:34:15.655Z,100600.97
2022-11-02T22:39:17.048Z,100591.28
2022-11-02T22:44:20.951Z,100586.78
2022-11-02T22:49:22.303Z,100595.72
2022-11-02T22:54:23.646Z,100582.16
2022-11-02T22:59:24.935Z,100585.44
2022-11-02T23:04:26.279Z,100574.53
2022-11-02T23:09:27.563Z,100571.03
2022-11-02T23:14:28.897Z,100560.50
2022-11-02T23:19:30.431Z,100544.03
2022-11-02T23:24:50.476Z,100541.50
2022-11-02T23:30:10.303Z,100551.28
2022-11-02T23:35:30.261Z,100563.41
2022-11-02T23:40:32.658Z,100564.25
2022-11-02T23:45:34.640Z,100555.88
2022-11-02T23:50:54.937Z,100560.13
2022-11-02T23:56:15.699Z,100546.31
